Terminal Aerodrome Forecast
Issued by NWS

Home | Current Version | Previous Version | Text Only | Print | Product List | Glossary On
Versions: 1 2 3 4 5 6 7 8 9 10 11 12 13
000
FTUS43 KGLD 061517 AAA
TAFMCK
TAF AMD
KMCK 061517Z 0615/0712 19016G28KT P6SM SKC
     FM070300 17013G18KT P6SM SCT250 WS020/19040KT
     FM070800 14007KT P6SM SCT250 WS020/21040KT=

USA.gov is the U.S. government's official web portal to all federal, state and local government web resources and services.